Time;durP1;ratioP1;P1;durP2;ratioP2;P2;SDS_P1;SDS_P2;PMS_P1;PMS_P2;Temp;Humidity;BMP_temperature;BMP_pressure;BME280_temperature;BME280_humidity;BME280_pressure;Samples;Min_cycle;Max_cycle;Signal;HPM_P1;HPM_P2
2023/12/02 00:01:23;;;;;;;31.48;23.23;;;;;;;-2.59;100.00;101014.47;4970086;28;20398;-79
2023/12/02 00:03:49;;;;;;;31.63;24.98;;;;;;;-2.54;100.00;101010.09;4969937;28;20031;-79
2023/12/02 00:06:14;;;;;;;18.20;8.25;;;;;;;-2.47;100.00;101013.41;4991828;28;20529;-79
2023/12/02 00:08:39;;;;;;;16.20;7.15;;;;;;;-2.45;100.00;101017.66;4987962;28;20022;-79
2023/12/02 00:11:05;;;;;;;14.32;6.70;;;;;;;-2.46;100.00;101005.66;4975743;28;20121;-79
2023/12/02 00:13:30;;;;;;;18.92;7.72;;;;;;;-2.47;100.00;101008.25;4980175;28;20023;-79
2023/12/02 00:15:56;;;;;;;14.50;6.88;;;;;;;-2.46;100.00;101002.22;4974350;28;20039;-79
2023/12/02 00:18:21;;;;;;;12.10;6.38;;;;;;;-2.47;100.00;100992.81;4973497;28;20038;-79
2023/12/02 00:20:46;;;;;;;14.48;7.40;;;;;;;-2.48;100.00;100996.25;4973309;28;20339;-79
2023/12/02 00:23:12;;;;;;;17.23;6.55;;;;;;;-2.48;100.00;101002.25;4973601;28;20479;-79
2023/12/02 00:25:37;;;;;;;29.70;23.85;;;;;;;-2.60;100.00;101003.34;4967771;28;20121;-79
2023/12/02 00:28:02;;;;;;;14.65;6.57;;;;;;;-2.52;100.00;101016.91;4991112;28;20137;-79
2023/12/02 00:30:28;;;;;;;31.85;25.23;;;;;;;-2.67;100.00;101011.19;4993401;28;20032;-79
2023/12/02 00:32:53;;;;;;;29.73;24.08;;;;;;;-2.71;100.00;101010.41;4975799;28;20501;-79
2023/12/02 00:35:19;;;;;;;17.23;7.22;;;;;;;-2.61;100.00;101011.94;4992701;28;20471;-79
2023/12/02 00:37:44;;;;;;;16.42;7.88;;;;;;;-2.60;100.00;101017.94;4991792;28;20550;-79
2023/12/02 00:40:10;;;;;;;19.15;7.43;;;;;;;-2.60;100.00;101017.94;4973796;28;20501;-79
2023/12/02 00:42:35;;;;;;;32.20;25.00;;;;;;;-2.73;100.00;101022.44;4986777;28;20034;-79
2023/12/02 00:45:00;;;;;;;30.90;23.63;;;;;;;-2.75;100.00;101008.75;4992383;28;20026;-79
2023/12/02 00:47:26;;;;;;;30.63;24.00;;;;;;;-2.77;100.00;101019.97;4974778;28;20025;-79
2023/12/02 00:49:51;;;;;;;15.82;7.53;;;;;;;-2.67;100.00;101014.63;4991485;28;20038;-79
2023/12/02 00:52:17;;;;;;;29.17;23.48;;;;;;;-2.81;100.00;101013.97;4991057;28;20373;-79
2023/12/02 00:54:42;;;;;;;19.25;7.07;;;;;;;-2.73;100.00;101009.56;4990582;28;20038;-78
2023/12/02 00:57:07;;;;;;;30.40;23.70;;;;;;;-2.86;100.00;101016.63;4991655;28;20054;-79
2023/12/02 00:59:33;;;;;;;30.30;23.73;;;;;;;-2.86;100.00;101008.06;4987526;28;20109;-78
2023/12/02 01:01:58;;;;;;;16.27;6.78;;;;;;;-2.76;100.00;101022.50;4983245;28;20033;-78
2023/12/02 01:04:24;;;;;;;26.63;8.38;;;;;;;-2.75;100.00;101016.47;4990939;28;20433;-79
2023/12/02 01:06:49;;;;;;;15.65;6.72;;;;;;;-2.73;100.00;101024.19;4974533;28;20470;-79
2023/12/02 01:09:17;;;;;;;29.73;23.65;;;;;;;-2.78;100.00;101008.81;4991997;28;20069;-78
2023/12/02 01:11:43;;;;;;;21.17;8.10;;;;;;;-2.69;100.00;101008.66;4990584;28;20360;-78
2023/12/02 01:14:08;;;;;;;10.30;5.07;;;;;;;-2.66;100.00;101012.91;4985374;28;20639;-79
2023/12/02 01:16:33;;;;;;;29.40;22.95;;;;;;;-2.79;100.00;101012.25;4986418;28;20479;-78
2023/12/02 01:18:59;;;;;;;30.02;24.27;;;;;;;-2.82;100.00;101007.13;4989273;28;20034;-79
2023/12/02 01:21:24;;;;;;;28.20;23.90;;;;;;;-2.84;100.00;101008.88;4974079;28;20073;-78
2023/12/02 01:23:49;;;;;;;17.05;7.35;;;;;;;-2.77;100.00;101000.22;4989645;28;20088;-79
2023/12/02 01:26:18;;;;;;;22.08;8.38;;;;;;;-2.76;100.00;101001.06;4982222;28;20497;-79
2023/12/02 01:28:43;;;;;;;28.52;24.05;;;;;;;-2.84;100.00;100998.59;4990782;28;20030;-79
2023/12/02 01:31:08;;;;;;;17.63;7.63;;;;;;;-2.75;100.00;100998.47;4990216;28;20442;-79
2023/12/02 01:33:34;;;;;;;30.80;24.95;;;;;;;-2.76;100.00;100996.75;4990723;28;20474;-79
2023/12/02 01:35:59;;;;;;;11.85;5.32;;;;;;;-2.65;100.00;101009.44;4973728;28;20022;-78
2023/12/02 01:38:25;;;;;;;18.20;7.95;;;;;;;-2.65;100.00;101012.88;4989834;28;20058;-79
2023/12/02 01:40:50;;;;;;;16.75;7.05;;;;;;;-2.63;100.00;101015.41;4972748;28;20065;-79
2023/12/02 01:43:26;;;;;;;32.55;25.08;;;;;;;-2.71;100.00;101018.13;4990661;28;20022;-79
2023/12/02 01:45:53;;;;;;;32.33;25.25;;;;;;;-2.75;100.00;101011.34;4973073;28;20033;-79
2023/12/02 01:48:19;;;;;;;32.38;25.02;;;;;;;-2.77;100.00;101028.53;4971510;28;20079;-79
2023/12/02 01:50:46;;;;;;;22.17;7.85;;;;;;;-2.64;100.00;101039.47;4986762;28;20124;-79
2023/12/02 01:53:11;;;;;;;19.85;7.47;;;;;;;-2.63;100.00;101039.44;4973338;28;20035;-79
2023/12/02 01:55:36;;;;;;;16.73;7.45;;;;;;;-2.61;100.00;101036.84;4972141;28;20041;-79
2023/12/02 01:58:02;;;;;;;31.35;24.63;;;;;;;-2.69;100.00;101034.41;4969310;28;20023;-79
2023/12/02 02:00:27;;;;;;;31.33;25.17;;;;;;;-2.67;100.00;101030.06;4980586;28;20498;-79
2023/12/02 02:02:53;;;;;;;18.90;7.82;;;;;;;-2.57;100.00;101038.47;4973805;28;20034;-79
2023/12/02 02:05:18;;;;;;;30.88;24.65;;;;;;;-2.65;100.00;101036.03;4971958;28;20022;-81
2023/12/02 02:07:43;;;;;;;19.20;8.30;;;;;;;-2.59;100.00;101035.94;4973298;28;20026;-79
2023/12/02 02:10:09;;;;;;;20.17;7.88;;;;;;;-2.59;100.00;101035.94;4990779;28;20033;-79
2023/12/02 02:12:35;;;;;;;20.13;7.30;;;;;;;-2.58;100.00;101032.47;4987568;28;20315;-78
2023/12/02 02:15:00;;;;;;;20.77;7.78;;;;;;;-2.59;100.00;101037.66;4979682;28;20034;-79
2023/12/02 02:17:26;;;;;;;32.45;25.38;;;;;;;-2.72;100.00;101031.88;4992069;28;20025;-79
2023/12/02 02:19:52;;;;;;;33.97;26.20;;;;;;;-2.75;100.00;101029.34;4965125;28;20031;-79
2023/12/02 02:22:17;;;;;;;14.07;6.82;;;;;;;-2.67;100.00;101027.50;4953985;28;20593;-80
2023/12/02 02:24:43;;;;;;;17.98;6.90;;;;;;;-2.69;100.00;101033.53;4967086;28;20029;-80
2023/12/02 02:27:08;;;;;;;20.05;8.40;;;;;;;-2.71;100.00;101033.56;4990506;28;20025;-80
2023/12/02 02:29:34;;;;;;;16.80;6.65;;;;;;;-2.71;100.00;101032.72;4991174;28;20022;-80
2023/12/02 02:31:59;;;;;;;20.60;7.82;;;;;;;-2.71;100.00;101033.56;5009893;28;20026;-80
2023/12/02 02:34:25;;;;;;;18.77;6.40;;;;;;;-2.69;100.00;101036.97;5008563;28;20022;-80
2023/12/02 02:36:51;;;;;;;16.88;6.85;;;;;;;-2.68;100.00;101032.66;5009270;28;20050;-80
2023/12/02 02:39:16;;;;;;;33.20;25.98;;;;;;;-2.81;100.00;101029.44;5008544;28;20402;-80
2023/12/02 02:41:42;;;;;;;17.98;7.78;;;;;;;-2.72;100.00;101034.44;4980151;28;20044;-80
2023/12/02 02:44:07;;;;;;;32.38;25.75;;;;;;;-2.81;100.00;101047.44;4990014;28;20105;-79
2023/12/02 02:46:33;;;;;;;21.85;8.55;;;;;;;-2.69;100.00;101042.13;4989750;28;20038;-79
2023/12/02 02:48:58;;;;;;;18.95;7.82;;;;;;;-2.68;100.00;101046.41;4957268;28;20022;-80
2023/12/02 02:51:23;;;;;;;20.30;8.45;;;;;;;-2.64;100.00;101053.19;4989586;28;20449;-79
2023/12/02 02:53:49;;;;;;;19.02;8.07;;;;;;;-2.60;100.00;101049.69;4989801;28;20402;-80
2023/12/02 02:56:14;;;;;;;31.67;25.35;;;;;;;-2.70;100.00;101050.72;4972297;28;20026;-80
2023/12/02 02:58:40;;;;;;;31.35;25.63;;;;;;;-2.70;100.00;101053.28;4985052;28;20048;-80
2023/12/02 03:01:05;;;;;;;34.83;26.55;;;;;;;-2.71;100.00;101056.75;4981279;28;20054;-80
2023/12/02 03:03:31;;;;;;;32.85;25.52;;;;;;;-2.69;100.00;101051.56;4988528;28;20026;-80
2023/12/02 03:05:56;;;;;;;21.20;7.68;;;;;;;-2.59;100.00;101061.69;4989157;28;20505;-80
2023/12/02 03:08:21;;;;;;;22.33;7.82;;;;;;;-2.56;100.00;101064.22;4988577;28;20121;-80
2023/12/02 03:10:48;;;;;;;33.40;26.17;;;;;;;-2.64;100.00;101063.50;4986261;28;20034;-80
2023/12/02 03:13:14;;;;;;;32.13;25.75;;;;;;;-2.67;100.00;101060.13;4983963;28;20064;-81
2023/12/02 03:15:39;;;;;;;17.23;8.45;;;;;;;-2.56;100.00;101059.06;4989072;28;20405;-81
2023/12/02 03:18:04;;;;;;;31.52;24.73;;;;;;;-2.64;100.00;101053.19;4988603;28;20093;-79
2023/12/02 03:20:30;;;;;;;25.55;8.32;;;;;;;-2.52;100.00;101057.28;4972661;28;20041;-80
2023/12/02 03:22:55;;;;;;;33.28;25.40;;;;;;;-2.63;100.00;101062.63;4988856;28;20018;-81
2023/12/02 03:25:21;;;;;;;16.60;6.40;;;;;;;-2.53;100.00;101048.69;4971714;28;20053;-80
2023/12/02 03:27:46;;;;;;;29.83;24.70;;;;;;;-2.68;100.00;101064.41;4972871;28;20026;-80
2023/12/02 03:30:12;;;;;;;32.25;26.10;;;;;;;-2.69;100.00;101060.16;4987556;28;20778;-81
2023/12/02 03:32:41;;;;;;;33.33;26.50;;;;;;;-2.68;100.00;101061.84;4988090;28;20387;-80
2023/12/02 03:35:08;;;;;;;32.75;25.75;;;;;;;-2.69;100.00;101055.00;4971550;28;20467;-80
2023/12/02 03:37:34;;;;;;;31.10;25.15;;;;;;;-2.70;100.00;101058.44;4986886;28;20056;-80
2023/12/02 03:40:00;;;;;;;30.70;24.23;;;;;;;-2.69;100.00;101056.72;4971733;28;20030;-80
2023/12/02 03:42:25;;;;;;;31.48;25.88;;;;;;;-2.75;100.00;101055.09;4971744;28;20089;-80
2023/12/02 03:44:50;;;;;;;31.52;24.35;;;;;;;-2.73;100.00;101055.06;4968357;28;20033;-80
2023/12/02 03:47:16;;;;;;;19.75;6.80;;;;;;;-2.62;100.00;101053.16;4970581;28;20113;-80
2023/12/02 03:49:41;;;;;;;32.50;25.63;;;;;;;-2.78;100.00;101057.72;4990174;28;20457;-80
2023/12/02 03:52:06;;;;;;;31.88;25.50;;;;;;;-2.76;100.00;101063.69;4987909;28;20565;-80
2023/12/02 03:54:32;;;;;;;20.52;8.15;;;;;;;-2.65;100.00;101066.94;4989087;28;20034;-80
2023/12/02 03:56:58;;;;;;;22.92;8.48;;;;;;;-2.65;100.00;101061.78;4971074;28;20118;-80
2023/12/02 03:59:23;;;;;;;18.00;7.57;;;;;;;-2.63;100.00;101065.19;4980079;28;20109;-80
2023/12/02 04:01:48;;;;;;;32.47;26.38;;;;;;;-2.76;100.00;101063.69;4966427;28;20463;-80
2023/12/02 04:04:14;;;;;;;31.77;25.85;;;;;;;-2.74;100.00;101082.53;4977908;28;20031;-80
2023/12/02 04:06:39;;;;;;;21.02;8.25;;;;;;;-2.62;100.00;101092.66;4974349;28;20105;-81
2023/12/02 04:09:05;;;;;;;18.83;6.90;;;;;;;-2.60;100.00;101072.88;4966679;28;20106;-81
2023/12/02 04:11:31;;;;;;;32.63;26.02;;;;;;;-2.71;100.00;101082.50;4987919;28;20165;-81
2023/12/02 04:13:59;;;;;;;18.48;7.63;;;;;;;-2.59;100.00;101097.75;4953856;28;20023;-81
2023/12/02 04:16:25;;;;;;;17.00;7.03;;;;;;;-2.56;100.00;101077.09;4970980;28;20545;-81
2023/12/02 04:18:50;;;;;;;18.05;7.55;;;;;;;-2.54;100.00;101100.25;4952989;28;20027;-81
2023/12/02 04:21:16;;;;;;;33.08;26.85;;;;;;;-2.66;100.00;101091.00;4970406;28;20387;-81
2023/12/02 04:23:41;;;;;;;20.48;8.48;;;;;;;-2.54;100.00;101103.66;4965238;28;20030;-81
2023/12/02 04:26:06;;;;;;;33.10;27.05;;;;;;;-2.69;100.00;101109.06;4989194;28;20018;-81
2023/12/02 04:28:33;;;;;;;33.90;27.02;;;;;;;-2.65;100.00;101099.56;4990308;28;20466;-81
2023/12/02 04:30:58;;;;;;;18.38;8.23;;;;;;;-2.53;100.00;101112.25;4989586;28;20026;-81
2023/12/02 04:33:24;;;;;;;32.88;26.85;;;;;;;-2.63;100.00;101106.41;4988972;28;20027;-81
2023/12/02 04:35:49;;;;;;;21.50;8.40;;;;;;;-2.49;100.00;101107.91;4986172;28;20491;-81
2023/12/02 04:38:17;;;;;;;32.00;26.02;;;;;;;-2.62;100.00;101102.09;4964002;28;20046;-81
2023/12/02 04:40:43;;;;;;;33.08;26.40;;;;;;;-2.62;100.00;101102.94;4989269;28;20033;-81
2023/12/02 04:43:09;;;;;;;23.00;9.40;;;;;;;-2.47;100.00;101113.88;4989973;28;20022;-81
2023/12/02 04:45:34;;;;;;;21.65;8.05;;;;;;;-2.49;100.00;101100.16;4960240;28;20102;-81
2023/12/02 04:47:59;;;;;;;32.80;26.00;;;;;;;-2.65;100.00;101100.41;4992376;28;20030;-81
2023/12/02 04:50:25;;;;;;;20.70;9.07;;;;;;;-2.52;100.00;101109.66;4993470;28;20098;-81
2023/12/02 04:52:50;;;;;;;18.83;8.27;;;;;;;-2.49;100.00;101106.16;4992909;28;20038;-81
2023/12/02 04:55:16;;;;;;;20.30;8.18;;;;;;;-2.47;100.00;101108.72;4989999;28;20022;-81
2023/12/02 04:57:42;;;;;;;16.70;7.18;;;;;;;-2.46;100.00;101110.41;4963772;28;20033;-81
2023/12/02 05:00:13;;;;;;;17.83;7.22;;;;;;;-2.43;100.00;101110.38;4974512;28;20022;-81
2023/12/02 05:02:41;;;;;;;35.78;28.25;;;;;;;-2.54;100.00;101108.81;4989723;28;20037;-81
2023/12/02 05:05:07;;;;;;;17.10;7.32;;;;;;;-2.43;100.00;101113.78;4972979;28;20027;-81
2023/12/02 05:07:32;;;;;;;20.63;7.30;;;;;;;-2.37;100.00;101123.16;4972755;28;20026;-81
2023/12/02 05:09:58;;;;;;;21.08;8.45;;;;;;;-2.37;100.00;101107.72;4972292;28;20081;-81
2023/12/02 05:12:24;;;;;;;35.58;27.05;;;;;;;-2.49;100.00;101113.91;4974799;28;20089;-81
2023/12/02 05:14:49;;;;;;;36.78;28.98;;;;;;;-2.48;100.00;101117.31;4974023;28;20040;-81
2023/12/02 05:17:14;;;;;;;35.95;28.75;;;;;;;-2.47;100.00;101127.59;4974199;28;20110;-81
2023/12/02 05:19:40;;;;;;;36.20;28.48;;;;;;;-2.48;100.00;101133.63;4989793;28;20076;-81
2023/12/02 05:22:05;;;;;;;32.33;27.02;;;;;;;-2.43;100.00;101134.41;4970604;28;20092;-81
2023/12/02 05:24:30;;;;;;;33.95;27.30;;;;;;;-2.45;100.00;101132.72;4974488;28;20390;-81
2023/12/02 05:26:57;;;;;;;18.33;8.23;;;;;;;-2.34;100.00;101143.72;4991988;28;20371;-81
2023/12/02 05:29:22;;;;;;;18.70;7.78;;;;;;;-2.32;100.00;101140.25;4972177;28;20042;-81
2023/12/02 05:31:48;;;;;;;16.80;6.90;;;;;;;-2.28;100.00;101151.34;4975129;28;20038;-81
2023/12/02 05:34:14;;;;;;;33.22;27.17;;;;;;;-2.40;100.00;101138.66;4970605;28;20022;-81
2023/12/02 05:36:39;;;;;;;22.75;8.38;;;;;;;-2.27;100.00;101135.88;4986662;28;20051;-82
2023/12/02 05:39:05;;;;;;;35.38;27.23;;;;;;;-2.37;100.00;101143.78;4972819;28;20022;-81
2023/12/02 05:41:30;;;;;;;31.63;26.17;;;;;;;-2.38;100.00;101144.66;4991465;28;20053;-81
2023/12/02 05:43:56;;;;;;;34.38;27.52;;;;;;;-2.41;100.00;101137.81;4974300;28;20026;-82
2023/12/02 05:46:21;;;;;;;22.80;8.52;;;;;;;-2.28;100.00;101129.03;4991663;28;20036;-82
2023/12/02 05:48:47;;;;;;;18.95;8.40;;;;;;;-2.22;100.00;101130.63;4992242;28;20113;-81
2023/12/02 05:51:13;;;;;;;20.55;7.88;;;;;;;-2.22;100.00;101126.34;4973466;28;20505;-82
2023/12/02 05:53:39;;;;;;;32.55;27.05;;;;;;;-2.37;100.00;101123.16;4991772;28;20038;-82
2023/12/02 05:56:06;;;;;;;34.63;27.73;;;;;;;-2.40;100.00;101138.66;4988425;28;20025;-82
2023/12/02 05:58:31;;;;;;;22.02;8.77;;;;;;;-2.27;100.00;101138.44;4971813;28;20026;-82
2023/12/02 06:00:56;;;;;;;33.42;27.05;;;;;;;-2.46;100.00;101144.75;4976435;28;20383;-82
2023/12/02 06:03:22;;;;;;;33.17;27.00;;;;;;;-2.46;100.00;101159.34;4980958;28;20018;-81
2023/12/02 06:05:47;;;;;;;33.55;26.83;;;;;;;-2.46;100.00;101159.34;4973078;28;20044;-81
2023/12/02 06:08:12;;;;;;;21.05;8.32;;;;;;;-2.35;100.00;101167.78;4990175;28;20463;-81
2023/12/02 06:10:38;;;;;;;19.17;7.60;;;;;;;-2.34;100.00;101167.78;4990291;28;20666;-82
2023/12/02 06:13:03;;;;;;;18.40;7.70;;;;;;;-2.36;100.00;101163.53;4987494;28;20541;-82
2023/12/02 06:15:28;;;;;;;17.08;7.53;;;;;;;-2.39;100.00;101172.16;4990155;28;20030;-82
2023/12/02 06:17:56;;;;;;;25.75;8.10;;;;;;;-2.38;100.00;101167.84;4990580;28;20109;-82
2023/12/02 06:20:24;;;;;;;25.15;7.43;;;;;;;-2.38;100.00;101158.38;4972199;28;20023;-82
2023/12/02 06:22:50;;;;;;;21.73;7.60;;;;;;;-2.37;100.00;101165.25;4989990;28;20058;-82
2023/12/02 06:25:18;;;;;;;35.22;28.13;;;;;;;-2.49;100.00;101169.72;4989123;28;20084;-82
2023/12/02 06:27:45;;;;;;;19.92;7.82;;;;;;;-2.36;100.00;101166.09;4972279;28;20030;-82
2023/12/02 06:30:18;;;;;;;34.85;28.17;;;;;;;-2.48;100.00;101171.41;4972823;28;20065;-82
2023/12/02 06:32:43;;;;;;;32.25;26.67;;;;;;;-2.48;100.00;101176.56;4990703;28;20403;-82
2023/12/02 06:35:09;;;;;;;34.50;27.52;;;;;;;-2.48;100.00;101187.72;4973103;28;20030;-82
2023/12/02 06:37:35;;;;;;;20.23;8.20;;;;;;;-2.35;100.00;101186.69;4989827;28;20579;-82
2023/12/02 06:40:00;;;;;;;21.77;8.57;;;;;;;-2.31;100.00;101187.47;4989982;28;20026;-82
2023/12/02 06:42:29;;;;;;;16.23;7.38;;;;;;;-2.33;100.00;101186.66;4973339;28;20053;-82
2023/12/02 06:44:54;;;;;;;36.15;27.65;;;;;;;-2.48;100.00;101192.03;4971214;28;20030;-82
2023/12/02 06:47:20;;;;;;;18.73;7.93;;;;;;;-2.38;100.00;101191.03;4989938;28;20434;-81
2023/12/02 06:49:46;;;;;;;33.30;27.33;;;;;;;-2.47;100.00;101193.72;4985565;28;20050;-82
2023/12/02 06:52:11;;;;;;;16.48;7.70;;;;;;;-2.37;100.00;101187.59;4972824;28;20486;-82
2023/12/02 06:54:37;;;;;;;34.72;28.42;;;;;;;-2.52;100.00;101199.78;4972011;28;20045;-82
2023/12/02 06:57:06;;;;;;;36.33;28.02;;;;;;;-2.57;100.00;101199.03;4989328;28;20040;-82
2023/12/02 06:59:32;;;;;;;18.10;8.10;;;;;;;-2.40;100.00;101208.22;4988767;28;20550;-82
2023/12/02 07:02:00;;;;;;;17.38;6.55;;;;;;;-2.38;100.00;101214.22;4979724;28;20118;-82
2023/12/02 07:04:25;;;;;;;18.45;8.00;;;;;;;-2.37;100.00;101216.78;4977406;28;20136;-82
2023/12/02 07:06:51;;;;;;;37.70;28.77;;;;;;;-2.45;100.00;101225.47;4969854;28;20109;-82
2023/12/02 07:09:16;;;;;;;38.90;29.30;;;;;;;-2.49;100.00;101218.66;4970683;28;20541;-82
2023/12/02 07:11:41;;;;;;;35.67;28.10;;;;;;;-2.54;100.00;101224.72;4970626;28;20031;-80
2023/12/02 07:14:07;;;;;;;37.13;28.95;;;;;;;-2.53;100.00;101229.00;4971687;28;20117;-83
2023/12/02 07:16:32;;;;;;;37.40;29.02;;;;;;;-2.57;100.00;101223.91;4971358;28;20038;-81
2023/12/02 07:18:58;;;;;;;35.30;28.38;;;;;;;-2.55;100.00;101232.47;4968703;28;20026;-82
2023/12/02 07:21:23;;;;;;;38.80;29.70;;;;;;;-2.56;100.00;101236.78;4989336;28;20076;-82
2023/12/02 07:23:49;;;;;;;39.47;29.80;;;;;;;-2.54;100.00;101242.75;4988651;28;20394;-82
2023/12/02 07:26:14;;;;;;;38.90;30.33;;;;;;;-2.60;100.00;101248.00;4988614;28;20034;-82
2023/12/02 07:28:40;;;;;;;38.20;29.25;;;;;;;-2.53;100.00;101247.03;4987589;28;20030;-82
2023/12/02 07:31:11;;;;;;;17.75;8.88;;;;;;;-2.42;100.00;101248.59;4971246;28;20030;-82
2023/12/02 07:33:36;;;;;;;21.10;8.30;;;;;;;-2.40;100.00;101254.59;4989845;28;20458;-81
2023/12/02 07:36:02;;;;;;;20.13;7.85;;;;;;;-2.39;100.00;101243.44;4987254;28;20105;-82
2023/12/02 07:38:27;;;;;;;21.90;8.57;;;;;;;-2.38;100.00;101246.00;4959258;28;20042;-83
2023/12/02 07:40:53;;;;;;;37.78;29.00;;;;;;;-2.50;100.00;101253.00;4986882;28;20053;-83
2023/12/02 07:43:18;;;;;;;18.60;7.50;;;;;;;-2.39;100.00;101248.59;4988571;28;20115;-83
2023/12/02 07:45:43;;;;;;;39.28;29.52;;;;;;;-2.48;100.00;101243.53;4970323;28;20030;-83
2023/12/02 07:48:10;;;;;;;36.85;29.35;;;;;;;-2.47;100.00;101240.94;4972906;28;20034;-83
2023/12/02 07:50:37;;;;;;;23.42;9.20;;;;;;;-2.39;100.00;101236.56;4970577;28;20117;-83
2023/12/02 07:53:02;;;;;;;40.63;30.05;;;;;;;-2.53;100.00;101241.88;4986407;28;20064;-83
2023/12/02 07:55:27;;;;;;;23.95;9.75;;;;;;;-2.44;100.00;101246.06;4988918;28;20479;-83
2023/12/02 07:57:53;;;;;;;38.60;29.63;;;;;;;-2.60;100.00;101242.84;4986546;28;20029;-83
2023/12/02 08:00:18;;;;;;;37.97;29.98;;;;;;;-2.68;100.00;101262.72;4979712;28;20037;-81
2023/12/02 08:02:44;;;;;;;38.45;29.58;;;;;;;-2.66;100.00;101275.56;4987221;28;20474;-81
2023/12/02 08:05:09;;;;;;;36.50;29.45;;;;;;;-2.61;100.00;101273.78;4988765;28;20110;-81
2023/12/02 08:07:35;;;;;;;26.13;9.95;;;;;;;-2.52;100.00;101279.66;4971637;28;20034;-81
2023/12/02 08:10:00;;;;;;;18.30;7.97;;;;;;;-2.52;100.00;101284.81;4989400;28;20478;-81
2023/12/02 08:12:26;;;;;;;37.15;29.35;;;;;;;-2.64;100.00;101276.38;4971076;28;20510;-82
2023/12/02 08:14:51;;;;;;;37.45;29.35;;;;;;;-2.73;100.00;101274.78;4986798;28;20045;-83
2023/12/02 08:17:17;;;;;;;41.60;30.70;;;;;;;-2.77;100.00;101280.00;4988916;28;20393;-82
2023/12/02 08:19:42;;;;;;;41.40;30.83;;;;;;;-2.77;100.00;101288.56;4988227;28;20506;-82
2023/12/02 08:22:08;;;;;;;39.75;30.20;;;;;;;-2.80;100.00;101293.75;4992538;28;20065;-81
2023/12/02 08:24:35;;;;;;;39.95;30.35;;;;;;;-2.85;100.00;101310.97;4991800;28;20026;-81
2023/12/02 08:27:01;;;;;;;19.65;8.57;;;;;;;-2.70;100.00;101310.81;4974497;28;20034;-81
2023/12/02 08:29:26;;;;;;;18.48;8.60;;;;;;;-2.68;100.00;101308.22;4993371;28;20490;-81
2023/12/02 08:31:52;;;;;;;39.47;29.77;;;;;;;-2.79;100.00;101316.06;4992670;28;20548;-81
2023/12/02 08:34:17;;;;;;;40.80;30.75;;;;;;;-2.79;100.00;101310.06;4973484;28;20030;-81
2023/12/02 08:36:43;;;;;;;40.28;30.48;;;;;;;-2.80;100.00;101319.50;4975493;28;20074;-81
2023/12/02 08:39:09;;;;;;;35.63;9.70;;;;;;;-2.67;100.00;101323.63;4973043;28;20022;-81
2023/12/02 08:41:36;;;;;;;19.75;8.10;;;;;;;-2.65;100.00;101329.63;4991096;28;20030;-81
2023/12/02 08:44:01;;;;;;;19.63;8.25;;;;;;;-2.64;100.00;101331.31;4985127;28;20080;-81
2023/12/02 08:46:27;;;;;;;17.42;7.60;;;;;;;-2.61;100.00;101336.44;4973729;28;20026;-81
2023/12/02 08:48:52;;;;;;;19.05;8.13;;;;;;;-2.61;100.00;101346.75;4988662;28;20068;-81
2023/12/02 08:51:18;;;;;;;25.13;7.88;;;;;;;-2.55;100.00;101351.81;4991691;28;20034;-81
2023/12/02 08:53:43;;;;;;;38.80;29.45;;;;;;;-2.63;100.00;101338.19;4974489;28;20034;-81
2023/12/02 08:56:09;;;;;;;38.63;30.75;;;;;;;-2.61;100.00;101343.31;4975353;28;20030;-81
2023/12/02 08:58:34;;;;;;;42.60;31.58;;;;;;;-2.62;100.00;101337.31;4966175;28;20054;-82
2023/12/02 09:01:00;;;;;;;39.65;30.60;;;;;;;-2.57;100.00;101338.09;4971533;28;20019;-81
2023/12/02 09:03:28;;;;;;;40.20;30.88;;;;;;;-2.55;100.00;101341.50;4992054;28;20026;-81
2023/12/02 09:05:56;;;;;;;22.60;9.35;;;;;;;-2.42;100.00;101341.34;4975244;28;20030;-81
2023/12/02 09:08:22;;;;;;;24.38;9.65;;;;;;;-2.37;100.00;101339.59;4974517;28;20038;-81
2023/12/02 09:10:48;;;;;;;22.45;9.35;;;;;;;-2.33;100.00;101341.25;4988175;28;20070;-81
2023/12/02 09:13:37;;;;;;;41.30;31.67;;;;;;;-2.34;100.00;101339.56;4967492;28;20399;-81
2023/12/02 09:16:03;;;;;;;21.45;8.98;;;;;;;-2.23;100.00;101342.84;4981971;28;20430;-81
2023/12/02 09:18:33;;;;;;;43.45;32.40;;;;;;;-2.22;100.00;101349.69;4992270;28;20026;-81
2023/12/02 09:20:59;;;;;;;42.17;32.40;;;;;;;-2.13;100.00;101346.97;4991819;28;20509;-81
2023/12/02 09:23:25;;;;;;;45.55;31.50;;;;;;;-2.08;100.00;101342.59;4975051;28;20041;-81
2023/12/02 09:25:53;;;;;;;21.80;9.57;;;;;;;-1.97;100.00;101345.91;4991875;28;20018;-82
2023/12/02 09:28:27;;;;;;;41.50;30.25;;;;;;;-1.98;100.00;101343.34;4973432;28;20056;-82
2023/12/02 09:30:57;;;;;;;42.20;32.00;;;;;;;-1.95;100.00;101346.75;4975142;28;20038;-82
2023/12/02 09:33:22;;;;;;;41.22;31.40;;;;;;;-1.90;100.00;101347.53;4973314;28;20034;-82
2023/12/02 09:36:04;;;;;;;39.70;30.85;;;;;;;-1.81;100.00;101348.25;4974005;28;20084;-82
2023/12/02 09:38:31;;;;;;;40.83;31.42;;;;;;;-1.79;100.00;101357.66;4974437;28;20426;-82
2023/12/02 09:41:00;;;;;;;39.53;30.80;;;;;;;-1.74;100.00;101365.34;4974992;28;20027;-82
2023/12/02 09:43:33;;;;;;;30.90;10.43;;;;;;;-1.59;100.00;101362.53;4991398;28;20022;-82
2023/12/02 09:46:36;;;;;;;20.83;9.15;;;;;;;-1.52;100.00;101371.88;4991706;28;20753;-81
2023/12/02 09:49:23;;;;;;;23.00;8.95;;;;;;;-1.47;100.00;101377.81;4973455;28;20149;-82
2023/12/02 09:52:00;;;;;;;43.92;32.03;;;;;;;-1.50;100.00;101372.72;4992313;28;20038;-82
2023/12/02 09:54:40;;;;;;;40.50;30.95;;;;;;;-1.48;100.00;101370.94;4990472;28;20587;-81
2023/12/02 09:57:17;;;;;;;39.85;30.88;;;;;;;-1.53;100.00;101372.75;4990830;28;20034;-82
2023/12/02 09:59:54;;;;;;;40.78;31.00;;;;;;;-1.52;100.00;101369.31;4983125;28;20038;-82
2023/12/02 10:03:02;;;;;;;41.28;31.25;;;;;;;-1.43;100.00;101379.47;4972566;28;20030;-82
2023/12/02 10:05:39;;;;;;;40.03;31.85;;;;;;;-1.42;100.00;101364.84;4952286;28;20499;-82
2023/12/02 10:08:37;;;;;;;42.90;31.55;;;;;;;-1.30;100.00;101360.31;4974380;28;20033;-82
2023/12/02 10:11:10;;;;;;;42.70;33.42;;;;;;;-1.28;100.00;101355.13;4974071;28;20030;-82
2023/12/02 10:13:58;;;;;;;40.70;31.80;;;;;;;-1.15;100.00;101358.38;4990443;28;20038;-83
2023/12/02 10:16:26;;;;;;;42.00;31.42;;;;;;;-1.11;100.00;101360.88;4973115;28;20034;-82
2023/12/02 10:18:57;;;;;;;39.45;31.00;;;;;;;-1.10;100.00;101356.56;4987825;28;20030;-82
2023/12/02 10:21:28;;;;;;;41.10;30.88;;;;;;;-0.98;100.00;101361.50;4972885;28;20049;-83
2023/12/02 10:24:01;;;;;;;39.92;30.45;;;;;;;-0.97;100.00;101365.78;4989477;28;20033;-82
2023/12/02 10:27:03;;;;;;;38.38;29.83;;;;;;;-0.91;100.00;101363.06;4970691;28;20026;-83
2023/12/02 10:29:35;;;;;;;23.53;9.43;;;;;;;-0.81;100.00;101368.91;4962223;28;20056;-82
2023/12/02 10:32:12;;;;;;;37.65;29.48;;;;;;;-0.90;100.00;101369.09;4975870;28;20019;-82
2023/12/02 10:34:56;;;;;;;25.55;9.60;;;;;;;-0.82;100.00;101373.22;4971935;28;20042;-83
2023/12/02 10:37:41;;;;;;;38.38;30.35;;;;;;;-0.96;100.00;101367.47;4962628;28;20049;-82
2023/12/02 10:40:09;;;;;;;23.98;9.77;;;;;;;-0.79;100.00;101372.34;4990979;28;20037;-83
2023/12/02 10:43:13;;;;;;;28.02;9.48;;;;;;;-0.67;100.00;101377.28;4990747;28;20026;-83
2023/12/02 10:45:41;;;;;;;27.10;9.60;;;;;;;-0.52;100.00;101373.53;4986578;28;20038;-83
2023/12/02 10:48:09;;;;;;;42.38;31.15;;;;;;;-0.54;100.00;101373.56;4973103;28;20022;-82
2023/12/02 10:50:36;;;;;;;40.33;30.40;;;;;;;-0.44;100.00;101380.25;4990514;28;20484;-83
2023/12/02 10:53:03;;;;;;;38.88;30.27;;;;;;;-0.43;100.00;101381.09;4969341;28;20129;-82
2023/12/02 10:55:36;;;;;;;35.78;28.00;;;;;;;-0.38;100.00;101385.31;4990155;28;20048;-82
2023/12/02 10:58:06;;;;;;;39.67;29.85;;;;;;;-0.28;100.00;101385.13;4986579;28;20093;-82
2023/12/02 11:00:34;;;;;;;38.42;29.73;;;;;;;-0.29;100.00;101381.69;4987961;28;20431;-83
2023/12/02 11:03:05;;;;;;;39.13;29.95;;;;;;;-0.36;100.00;101383.53;4972732;28;20105;-83
2023/12/02 11:05:44;;;;;;;39.28;30.85;;;;;;;-0.30;100.00;101377.41;4970670;28;20037;-83